createdAt,value
2022-11-23T00:01:42.318Z,6.70
2022-11-23T00:06:43.980Z,6.70
2022-11-23T00:11:46.986Z,6.74
2022-11-23T00:16:48.697Z,6.76
2022-11-23T00:21:50.506Z,6.81
2022-11-23T00:26:56.864Z,6.82
2022-11-23T00:31:58.597Z,6.87
2022-11-23T00:37:00.326Z,6.85
2022-11-23T00:42:02.037Z,6.84
2022-11-23T00:47:04.956Z,6.82
2022-11-23T00:52:09.210Z,6.87
2022-11-23T00:57:10.846Z,6.89
2022-11-23T01:02:13.534Z,6.86
2022-11-23T01:07:15.164Z,6.88
2022-11-23T01:12:16.762Z,6.90
2022-11-23T01:17:22.388Z,6.87
2022-11-23T01:22:24.074Z,6.87
2022-11-23T01:27:25.644Z,6.84
2022-11-23T01:32:28.840Z,6.79
2022-11-23T01:37:32.075Z,6.79
2022-11-23T01:42:54.806Z,6.77
2022-11-23T01:47:56.587Z,6.74
2022-11-23T01:52:58.561Z,6.79
2022-11-23T01:58:02.390Z,6.82
2022-11-23T02:03:07.365Z,6.76
2022-11-23T02:08:10.828Z,6.82
2022-11-23T02:13:14.026Z,6.82
2022-11-23T02:18:19.804Z,6.84
2022-11-23T02:23:33.064Z,6.88
2022-11-23T02:28:41.817Z,6.87
2022-11-23T02:33:43.647Z,6.90
2022-11-23T02:38:45.469Z,6.87
2022-11-23T02:43:51.758Z,6.88
2022-11-23T02:48:53.344Z,6.89
2022-11-23T02:53:54.957Z,6.89
2022-11-23T02:58:56.569Z,6.89
2022-11-23T03:03:58.154Z,6.92
2022-11-23T03:09:03.422Z,6.90
2022-11-23T03:14:05.779Z,6.93
2022-11-23T03:19:16.635Z,6.91
2022-11-23T03:24:18.750Z,6.96
2022-11-23T03:29:26.350Z,6.93
2022-11-23T03:34:29.575Z,6.90
2022-11-23T03:39:31.572Z,6.89
2022-11-23T03:44:36.404Z,6.88
2022-11-23T03:49:39.708Z,6.84
2022-11-23T03:54:43.318Z,6.89
2022-11-23T03:59:46.100Z,6.84
2022-11-23T04:04:48.812Z,6.84
2022-11-23T04:10:20.285Z,6.81
2022-11-23T04:15:48.123Z,6.80
2022-11-23T04:20:49.806Z,6.77
2022-11-23T04:25:53.430Z,6.77
2022-11-23T04:30:55.465Z,6.74
2022-11-23T04:35:58.116Z,6.76
2022-11-23T04:41:00.238Z,6.83
2022-11-23T04:46:02.666Z,6.82
2022-11-23T04:51:05.672Z,6.81
2022-11-23T04:56:11.853Z,6.84
2022-11-23T05:01:15.594Z,6.85
2022-11-23T05:06:35.928Z,6.90
2022-11-23T05:11:38.718Z,6.87
2022-11-23T05:16:41.962Z,6.89
2022-11-23T05:21:44.329Z,6.86
2022-11-23T05:26:48.236Z,6.92
2022-11-23T05:31:52.675Z,6.93
2022-11-23T05:36:54.487Z,6.93
2022-11-23T05:41:58.422Z,6.90
2022-11-23T05:47:27.739Z,6.92
2022-11-23T05:52:29.613Z,6.95
2022-11-23T05:57:31.479Z,6.95
2022-11-23T06:02:38.126Z,7.00
2022-11-23T06:07:42.704Z,6.97
2022-11-23T06:12:47.697Z,7.01
2022-11-23T06:17:52.279Z,6.94
2022-11-23T06:22:56.709Z,6.91
2022-11-23T06:28:01.520Z,6.89
2022-11-23T06:33:10.950Z,6.86
2022-11-23T06:38:18.597Z,6.78
2022-11-23T06:43:20.551Z,6.77
2022-11-23T06:48:24.706Z,6.75
2022-11-23T06:53:28.432Z,6.74
2022-11-23T06:58:35.324Z,6.81
2022-11-23T07:03:39.734Z,6.75
2022-11-23T07:08:54.774Z,6.74
2022-11-23T07:14:14.237Z,6.69
2022-11-23T07:19:20.258Z,6.65
2022-11-23T07:24:24.014Z,6.69
2022-11-23T07:29:25.806Z,6.71
2022-11-23T07:34:30.473Z,6.72
2022-11-23T07:39:55.537Z,6.72
2022-11-23T07:44:55.846Z,6.73
2022-11-23T07:49:57.584Z,6.71
2022-11-23T07:55:05.914Z,6.67
2022-11-23T08:00:09.442Z,6.64
2022-11-23T08:05:14.380Z,6.70
2022-11-23T08:10:23.213Z,6.60
2022-11-23T08:15:25.602Z,6.63
2022-11-23T08:20:34.185Z,6.64
2022-11-23T08:25:35.855Z,6.60
2022-11-23T08:30:38.312Z,6.69
2022-11-23T08:35:41.603Z,6.61
2022-11-23T08:40:52.586Z,6.64
2022-11-23T08:46:06.689Z,6.64
2022-11-23T08:51:11.548Z,6.69
2022-11-23T08:56:13.210Z,6.68
2022-11-23T09:01:16.360Z,6.83
2022-11-23T09:06:18.029Z,6.78
2022-11-23T09:11:19.643Z,6.91
2022-11-23T09:16:22.413Z,6.91
2022-11-23T09:21:29.334Z,6.93
2022-11-23T09:26:37.705Z,6.94
2022-11-23T09:31:39.461Z,6.93
2022-11-23T09:36:41.057Z,6.98
2022-11-23T09:42:01.254Z,7.02
2022-11-23T09:47:15.956Z,7.06
2022-11-23T09:52:22.492Z,7.16
2022-11-23T09:57:28.418Z,7.11
2022-11-23T10:02:32.157Z,7.20
2022-11-23T10:08:02.594Z,7.25
2022-11-23T10:13:13.563Z,7.17
2022-11-23T10:18:38.861Z,7.28
2022-11-23T10:23:54.096Z,7.34
2022-11-23T10:29:07.165Z,7.36
2022-11-23T10:34:12.116Z,7.34
2022-11-23T15:12:52.922Z,6.80
2022-11-23T15:18:01.974Z,6.78
2022-11-23T15:23:05.413Z,6.87
2022-11-23T15:28:17.071Z,6.85
2022-11-23T15:33:21.299Z,6.84
2022-11-23T15:38:24.063Z,6.81
2022-11-23T15:43:25.894Z,6.87
2022-11-23T15:48:32.958Z,6.87
2022-11-23T15:53:49.106Z,6.87
2022-11-23T15:58:53.241Z,6.87
2022-11-23T16:04:04.711Z,6.87
2022-11-23T16:09:51.243Z,6.87
2022-11-23T16:14:56.237Z,6.93
2022-11-23T16:20:02.080Z,6.92
2022-11-23T16:25:08.886Z,6.98
2022-11-23T16:30:35.159Z,6.96
2022-11-23T16:35:36.833Z,7.01
2022-11-23T16:40:42.589Z,7.01
2022-11-23T16:45:46.802Z,7.01
2022-11-23T16:50:48.648Z,7.00
2022-11-23T16:55:53.226Z,7.00
2022-11-23T17:00:57.140Z,7.01
2022-11-23T17:05:58.798Z,7.02
2022-11-23T17:11:01.529Z,6.98
2022-11-23T17:16:03.480Z,7.00
2022-11-23T17:21:05.261Z,7.00
2022-11-23T17:26:18.412Z,7.04
2022-11-23T17:31:21.721Z,7.04
2022-11-23T18:52:14.017Z,6.85
2022-11-23T18:57:16.952Z,6.82
2022-11-23T19:02:19.737Z,6.78
2022-11-23T19:07:26.647Z,6.79
2022-11-23T19:12:30.933Z,6.76
2022-11-23T19:17:33.202Z,6.75
2022-11-23T19:22:36.091Z,6.68
2022-11-23T19:27:37.813Z,6.65
2022-11-23T19:32:39.409Z,6.59
2022-11-23T21:09:33.079Z,6.91
2022-11-23T21:14:35.200Z,6.84
2022-11-23T21:19:39.571Z,6.84
2022-11-23T21:24:43.229Z,6.81
2022-11-23T21:29:45.071Z,6.81
2022-11-23T21:34:47.595Z,6.80
2022-11-23T21:39:52.843Z,6.78
2022-11-23T21:44:57.652Z,6.84
2022-11-23T21:49:59.672Z,6.90
2022-11-23T21:55:04.205Z,6.90
2022-11-23T22:00:08.104Z,6.92
2022-11-23T22:05:15.829Z,7.00
2022-11-23T22:10:18.085Z,7.04
2022-11-23T22:15:20.031Z,7.07
2022-11-23T22:20:21.913Z,7.02
2022-11-23T22:25:23.839Z,6.98
2022-11-23T22:30:25.740Z,6.96
2022-11-23T22:35:27.634Z,6.92
2022-11-23T22:40:32.782Z,6.93
2022-11-23T22:45:34.753Z,6.93
2022-11-23T22:51:04.841Z,6.94
2022-11-23T22:56:11.975Z,6.93
2022-11-23T23:01:16.420Z,6.96
2022-11-23T23:06:20.251Z,7.00
2022-11-23T23:11:22.980Z,7.10
2022-11-23T23:16:25.978Z,7.09
2022-11-23T23:21:28.795Z,7.13
2022-11-23T23:26:30.567Z,7.12
2022-11-23T23:31:32.376Z,7.15
2022-11-23T23:36:35.951Z,7.16
2022-11-23T23:41:37.796Z,7.26
2022-11-23T23:46:39.688Z,7.25
2022-11-23T23:51:41.536Z,7.32
2022-11-23T23:56:43.438Z,7.37
